DTTB

Sidi Ahmed Air Base Airport

Sidi Ahmed, Tunisia
METAR DTTB 212300Z 31003KT 270V330 9999 SCT016 SCT030 22/20 Q1014
Observed Flight Rules
Aug-21 @ 23:00 UTC (44 minutes ago) Visual Flight Rules
Wind Visibility Clouds
310° at 3 knots 10,000+ meters
  • Scattered at 1,600' AGL
  • Scattered at 3,000' AGL
Temperatures Readings
Current 22°C / 72°F
Dewpoint 20°C / 68°F
Humidity 88%
Altimeter 29.94" Hg
Pressure 1014 hPa
Elevation 3
METAR DTTB 212300Z 31003KT 270V330 9999 SCT016 SCT030 22/20 Q1014
Observed Flight Rules
Aug-21 @ 23:00 UTC
(44 minutes ago)
VFR
Wind Visibility
310° at 3 knots 10,000+ meters
Clouds
  • Scattered at 1,600' AGL
  • Scattered at 3,000' AGL
Temperature Dewpoint
22°C / 72°F 20°C / 68°F
Humidity Altimeter Pressure
88% 29.94" Hg 1014 hPa